createdAt,value
2022-11-21T00:01:57.853Z,90.60
2022-11-21T00:04:32.247Z,88.40
2022-11-21T00:07:07.464Z,93.20
2022-11-21T00:09:42.116Z,89.40
2022-11-21T00:12:16.636Z,91.20
2022-11-21T00:17:28.966Z,90.50
2022-11-21T00:20:03.559Z,91.70
2022-11-21T00:22:36.981Z,84.20
2022-11-21T00:25:13.053Z,88.40
2022-11-21T00:27:47.327Z,91.00
2022-11-21T00:30:20.269Z,101.90
2022-11-21T00:32:55.672Z,81.70
2022-11-21T00:35:33.201Z,89.80
2022-11-21T00:38:06.354Z,100.80
2022-11-21T00:40:41.514Z,102.00
2022-11-21T00:43:16.994Z,99.70
2022-11-21T00:45:49.245Z,87.60
2022-11-21T00:48:25.289Z,94.70
2022-11-21T00:50:59.699Z,93.90
2022-11-21T00:53:33.283Z,86.20
2022-11-21T00:58:35.927Z,90.60
2022-11-21T01:01:11.010Z,80.50
2022-11-21T01:03:43.432Z,90.60
2022-11-21T01:06:17.079Z,95.50
2022-11-21T01:08:48.983Z,88.60
2022-11-21T01:11:22.396Z,99.90
2022-11-21T01:13:56.049Z,108.40
2022-11-21T01:16:29.096Z,111.00
2022-11-21T01:19:01.618Z,108.30
2022-11-21T01:21:33.975Z,92.70
2022-11-21T01:24:06.251Z,103.90
2022-11-21T01:26:38.577Z,94.90
2022-11-21T01:29:10.323Z,95.30
2022-11-21T01:31:42.427Z,97.90
2022-11-21T01:34:15.404Z,102.20
2022-11-21T01:36:47.430Z,109.20
2022-11-21T01:39:19.173Z,96.40
2022-11-21T01:41:51.418Z,107.60
2022-11-21T01:44:24.864Z,93.80
2022-11-21T01:50:00.311Z,90.50
2022-11-21T01:52:35.816Z,107.40
2022-11-21T01:55:33.999Z,103.70
2022-11-21T01:58:08.837Z,94.90
2022-11-21T02:00:44.002Z,108.90
2022-11-21T02:03:28.988Z,111.60
2022-11-21T02:06:01.408Z,117.10
2022-11-21T02:08:35.978Z,121.00
2022-11-21T02:11:15.615Z,100.00
2022-11-21T02:13:47.675Z,113.00
2022-11-21T02:16:21.793Z,120.90
2022-11-21T02:18:54.136Z,115.90
2022-11-21T02:21:34.163Z,107.90
2022-11-21T02:24:09.122Z,111.40
2022-11-21T02:26:41.152Z,104.00
2022-11-21T02:29:14.204Z,103.10
2022-11-21T02:31:51.334Z,120.00
2022-11-21T02:34:26.033Z,107.80
2022-11-21T02:37:04.162Z,112.70
2022-11-21T02:39:39.368Z,119.00
2022-11-21T02:42:22.905Z,102.10
2022-11-21T02:45:00.042Z,105.60
2022-11-21T02:47:33.215Z,97.00
2022-11-21T02:50:15.938Z,111.80
2022-11-21T02:52:47.791Z,120.10
2022-11-21T02:55:19.746Z,138.00
2022-11-21T02:57:51.588Z,134.80
2022-11-21T03:00:24.850Z,138.50
2022-11-21T03:02:56.618Z,130.00
2022-11-21T03:05:28.824Z,105.40
2022-11-21T03:08:00.742Z,106.60
2022-11-21T03:10:32.830Z,111.00
2022-11-21T03:13:04.755Z,117.90
2022-11-21T03:15:38.549Z,111.40
2022-11-21T03:18:12.760Z,105.20
2022-11-21T03:20:44.650Z,100.50
2022-11-21T03:23:16.580Z,119.00
2022-11-21T03:25:49.939Z,103.40
2022-11-21T03:28:22.016Z,109.90
2022-11-21T03:30:57.288Z,113.80
2022-11-21T03:33:33.950Z,106.30
2022-11-21T03:36:15.510Z,120.10
2022-11-21T03:38:51.142Z,120.90
2022-11-21T03:41:32.169Z,114.50
2022-11-21T03:44:07.159Z,132.40
2022-11-21T03:46:42.965Z,143.70
2022-11-21T03:49:17.197Z,131.00
2022-11-21T03:51:52.616Z,120.40
2022-11-21T03:54:30.475Z,99.10
2022-11-21T03:57:05.147Z,121.80
2022-11-21T03:59:37.141Z,135.40
2022-11-21T04:02:08.975Z,127.50
2022-11-21T04:04:40.920Z,119.00
2022-11-21T04:07:13.673Z,131.20
2022-11-21T04:09:45.583Z,130.00
2022-11-21T04:12:17.853Z,115.80
2022-11-21T04:14:50.107Z,125.30
2022-11-21T04:17:22.749Z,106.10
2022-11-21T04:19:55.135Z,134.60
2022-11-21T04:22:29.356Z,126.30
2022-11-21T04:25:09.031Z,123.70
2022-11-21T04:27:49.422Z,116.00
2022-11-21T04:30:33.722Z,149.00
2022-11-21T04:33:06.500Z,133.30
2022-11-21T04:35:38.737Z,111.80
2022-11-21T04:38:10.706Z,128.20
2022-11-21T04:40:44.038Z,105.30
2022-11-21T04:43:16.198Z,103.30
2022-11-21T04:46:00.489Z,105.60
2022-11-21T04:51:07.285Z,102.90
2022-11-21T04:56:16.900Z,121.30
2022-11-21T04:58:55.018Z,110.80
2022-11-21T05:01:28.972Z,120.10
2022-11-21T05:07:02.519Z,98.50
2022-11-21T05:13:21.465Z,106.10
2022-11-21T05:16:40.800Z,107.80
2022-11-21T05:19:13.920Z,106.80
2022-11-21T05:21:47.447Z,115.70
2022-11-21T05:24:26.857Z,105.10
2022-11-21T05:27:16.072Z,107.50
2022-11-21T05:29:55.745Z,110.50
2022-11-21T05:32:28.626Z,129.60
2022-11-21T05:35:01.180Z,109.60
2022-11-21T05:37:33.267Z,111.10
2022-11-21T05:40:07.447Z,103.40
2022-11-21T05:43:06.030Z,112.80
2022-11-21T05:45:42.347Z,112.60
2022-11-21T05:48:17.031Z,104.90
2022-11-21T05:51:13.327Z,128.00
2022-11-21T05:53:47.175Z,118.10
2022-11-21T05:56:24.117Z,123.40
2022-11-21T05:59:22.850Z,107.00
2022-11-21T06:02:19.101Z,111.10
2022-11-21T06:05:28.011Z,111.00
2022-11-21T06:08:11.302Z,107.10
2022-11-21T06:10:49.785Z,98.20
2022-11-21T06:13:25.215Z,124.00
2022-11-21T06:16:02.502Z,131.20
2022-11-21T06:18:35.893Z,123.40
2022-11-21T06:21:18.836Z,121.90
2022-11-21T06:23:54.554Z,125.50
2022-11-21T06:26:30.839Z,109.00
2022-11-21T06:29:03.756Z,126.20
2022-11-21T06:31:47.975Z,130.80
2022-11-21T06:34:23.402Z,110.30
2022-11-21T06:37:09.477Z,103.30
2022-11-21T06:40:01.055Z,104.80
2022-11-21T06:43:27.776Z,101.90
2022-11-21T06:46:26.858Z,118.40
2022-11-21T06:49:04.879Z,111.50
2022-11-21T06:51:42.364Z,114.10
2022-11-21T06:54:19.342Z,110.80
2022-11-21T06:56:59.982Z,101.00
2022-11-21T06:59:42.160Z,124.30
2022-11-21T07:02:26.787Z,102.90
2022-11-21T07:05:05.199Z,123.50
2022-11-21T07:07:37.816Z,124.60
2022-11-21T07:10:13.688Z,115.10
2022-11-21T07:13:03.535Z,121.30
2022-11-21T07:15:36.343Z,120.50
2022-11-21T07:18:20.590Z,118.30
2022-11-21T07:21:08.434Z,119.00
2022-11-21T07:23:42.805Z,108.70
2022-11-21T07:26:29.170Z,107.60
2022-11-21T07:29:19.820Z,95.50
2022-11-21T07:31:58.864Z,110.90
2022-11-21T07:34:51.450Z,100.70
2022-11-21T07:37:23.411Z,105.70
2022-11-21T07:40:02.682Z,115.60
2022-11-21T07:42:52.830Z,102.00
2022-11-21T07:45:25.603Z,120.90
2022-11-21T07:48:05.503Z,111.50
2022-11-21T07:50:37.668Z,111.60
2022-11-21T07:53:12.456Z,109.00
2022-11-21T07:55:44.611Z,108.00
2022-11-21T07:58:18.449Z,119.00
2022-11-21T08:00:54.137Z,107.70
2022-11-21T08:03:26.009Z,98.30
2022-11-21T08:05:58.213Z,98.80
2022-11-21T08:08:30.170Z,127.90
2022-11-21T08:11:07.940Z,124.20
2022-11-21T08:13:49.349Z,146.50
2022-11-21T08:16:23.051Z,139.70
2022-11-21T08:18:56.743Z,132.70
2022-11-21T08:21:31.921Z,134.20
2022-11-21T08:24:10.852Z,130.40
2022-11-21T08:27:28.087Z,122.50
2022-11-21T08:30:10.084Z,127.40
2022-11-21T08:32:48.572Z,118.50
2022-11-21T08:35:24.110Z,118.30
2022-11-21T08:38:00.196Z,112.80
2022-11-21T08:40:33.328Z,113.40
2022-11-21T08:43:07.057Z,123.30
2022-11-21T08:45:40.181Z,106.50
2022-11-21T08:48:14.948Z,105.10
2022-11-21T08:50:47.013Z,116.50
2022-11-21T08:53:20.114Z,112.70
2022-11-21T08:55:52.178Z,106.70
2022-11-21T08:58:24.708Z,119.60
2022-11-21T09:00:56.548Z,106.10
2022-11-21T09:03:31.229Z,102.20
2022-11-21T09:06:03.669Z,98.60
2022-11-21T09:08:35.654Z,106.30
2022-11-21T09:11:09.186Z,93.30
2022-11-21T09:13:41.927Z,96.10
2022-11-21T09:16:32.210Z,95.50
2022-11-21T09:19:04.513Z,99.10
2022-11-21T09:21:36.440Z,88.60
2022-11-21T09:24:09.211Z,89.90
2022-11-21T09:26:41.135Z,86.10
2022-11-21T09:29:15.220Z,93.50
2022-11-21T09:31:47.289Z,82.20
2022-11-21T09:34:20.209Z,94.50
2022-11-21T09:36:52.109Z,114.40
2022-11-21T09:39:24.330Z,86.80
2022-11-21T09:42:07.901Z,88.80
2022-11-21T09:44:50.378Z,92.80
2022-11-21T09:47:26.331Z,82.70
2022-11-21T09:50:01.522Z,77.70
2022-11-21T09:52:40.858Z,68.30
2022-11-21T09:55:30.622Z,71.60
2022-11-21T09:58:04.100Z,64.60
2022-11-21T10:00:36.403Z,66.40
2022-11-21T10:03:10.188Z,53.20
2022-11-21T10:05:48.398Z,51.70
2022-11-21T10:08:23.981Z,54.60
2022-11-21T10:10:59.558Z,67.70
2022-11-21T10:13:46.118Z,60.20
2022-11-21T10:16:22.357Z,63.80
2022-11-21T10:19:09.444Z,63.10
2022-11-21T10:22:00.591Z,62.10
2022-11-21T10:24:46.650Z,60.40
2022-11-21T10:27:23.016Z,64.40
2022-11-21T10:30:00.030Z,62.60
2022-11-21T10:32:36.754Z,47.80
2022-11-21T10:35:18.304Z,58.50
2022-11-21T10:37:53.171Z,60.20
2022-11-21T10:40:31.016Z,51.00
2022-11-21T10:43:26.579Z,66.30
2022-11-21T10:45:58.673Z,62.30
2022-11-21T10:48:34.248Z,62.30
2022-11-21T10:51:24.443Z,62.20
2022-11-21T10:54:26.049Z,60.40
2022-11-21T10:57:07.876Z,51.60
2022-11-21T11:00:00.812Z,56.80
2022-11-21T11:02:34.775Z,53.40
2022-11-21T11:05:32.165Z,62.10
2022-11-21T11:08:31.002Z,48.70
2022-11-21T11:11:16.470Z,53.00
2022-11-21T11:14:08.381Z,58.80
2022-11-21T11:16:45.737Z,57.30
2022-11-21T11:19:37.032Z,59.90
2022-11-21T11:22:30.108Z,64.80
2022-11-21T11:25:01.815Z,59.40
2022-11-21T11:27:33.894Z,51.00
2022-11-21T11:30:15.618Z,62.10
2022-11-21T11:33:03.878Z,56.40
2022-11-21T11:35:37.125Z,54.50
2022-11-21T11:38:10.680Z,50.80
2022-11-21T11:40:45.011Z,60.40
2022-11-21T11:43:51.406Z,52.80
2022-11-21T11:46:49.597Z,53.80
2022-11-21T11:49:58.360Z,62.30
2022-11-21T11:52:33.217Z,65.50
2022-11-21T11:55:09.246Z,58.90
2022-11-21T11:57:41.564Z,67.70
2022-11-21T12:00:28.142Z,55.20
2022-11-21T12:03:04.193Z,59.60
2022-11-21T12:05:36.392Z,62.40
2022-11-21T12:11:29.283Z,58.10
2022-11-21T12:14:10.242Z,53.90
2022-11-21T12:16:43.970Z,51.30
2022-11-21T12:19:18.120Z,48.30
2022-11-21T12:22:12.230Z,57.20
2022-11-21T12:24:48.948Z,58.30
2022-11-21T12:27:30.522Z,52.50
2022-11-21T12:30:33.639Z,63.80
2022-11-21T12:33:09.595Z,60.30
2022-11-21T12:36:17.156Z,60.20
2022-11-21T12:39:09.708Z,57.80
2022-11-21T12:42:06.468Z,60.50
2022-11-21T12:44:50.042Z,64.60
2022-11-21T12:47:54.404Z,62.00
2022-11-21T12:50:48.976Z,67.70
2022-11-21T12:53:43.911Z,55.60
2022-11-21T12:56:22.920Z,65.00
2022-11-21T12:58:57.317Z,65.30
2022-11-21T13:01:37.349Z,62.20
2022-11-21T13:04:12.936Z,58.90
2022-11-21T13:06:48.321Z,62.10
2022-11-21T13:09:29.250Z,60.30
2022-11-21T13:12:05.813Z,69.00
2022-11-21T13:14:43.812Z,62.60
2022-11-21T13:17:24.632Z,73.00
2022-11-21T13:20:00.159Z,69.50
2022-11-21T13:22:56.366Z,58.10
2022-11-21T13:25:49.865Z,70.40
2022-11-21T13:28:33.695Z,65.00
2022-11-21T13:31:29.183Z,65.80
2022-11-21T13:34:01.637Z,65.30
2022-11-21T13:36:48.622Z,62.00
2022-11-21T13:39:32.334Z,71.30
2022-11-21T13:42:36.913Z,66.50
2022-11-21T13:48:26.478Z,61.40
2022-11-21T13:51:27.233Z,64.90
2022-11-21T13:54:15.027Z,59.00
2022-11-21T13:56:59.312Z,66.50
2022-11-21T13:59:44.572Z,65.10
2022-11-21T14:02:51.059Z,70.10
2022-11-21T14:05:38.076Z,71.00
2022-11-21T14:08:23.474Z,71.20
2022-11-21T14:10:58.082Z,76.00
2022-11-21T14:13:32.664Z,81.40
2022-11-21T14:16:18.086Z,71.80
2022-11-21T14:18:50.245Z,87.10
2022-11-21T14:21:27.381Z,83.20
2022-11-21T14:24:04.993Z,69.80
2022-11-21T14:27:28.706Z,89.40
2022-11-21T14:30:05.441Z,83.60
2022-11-21T14:32:37.787Z,99.80
2022-11-21T14:35:27.240Z,96.50
2022-11-21T14:38:01.033Z,84.50
2022-11-21T14:40:33.086Z,88.20
2022-11-21T14:43:25.020Z,98.70
2022-11-21T14:45:56.779Z,94.20
2022-11-21T14:48:32.884Z,105.90
2022-11-21T14:51:04.696Z,108.70
2022-11-21T14:53:36.920Z,99.20
2022-11-21T14:56:09.135Z,96.30
2022-11-21T14:58:43.825Z,88.30
2022-11-21T15:01:24.248Z,94.20
2022-11-21T15:04:01.470Z,98.80
2022-11-21T15:06:42.933Z,100.80
2022-11-21T15:12:14.154Z,97.80
2022-11-21T15:14:55.491Z,112.10
2022-11-21T15:17:27.639Z,108.20
2022-11-21T15:20:20.642Z,101.10
2022-11-21T15:22:55.115Z,82.60
2022-11-21T15:25:47.219Z,105.90
2022-11-21T15:28:25.808Z,93.40
2022-11-21T15:31:19.867Z,96.40
2022-11-21T15:34:34.792Z,104.80
2022-11-21T15:37:43.916Z,96.80
2022-11-21T15:40:45.653Z,107.00
2022-11-21T15:46:37.974Z,105.00
2022-11-21T15:52:07.681Z,106.40
2022-11-21T15:54:44.715Z,105.70
2022-11-21T15:57:12.763Z,93.30
2022-11-21T16:00:01.003Z,101.20
2022-11-21T16:02:36.757Z,115.60
2022-11-21T16:05:14.767Z,110.50
2022-11-21T16:07:48.571Z,100.30
2022-11-21T16:10:28.190Z,97.60
2022-11-21T16:13:03.164Z,121.10
2022-11-21T16:15:44.814Z,97.50
2022-11-21T16:18:17.107Z,105.60
2022-11-21T16:21:01.616Z,116.00
2022-11-21T16:23:38.752Z,103.40
2022-11-21T16:26:17.298Z,80.00
2022-11-21T16:28:49.196Z,107.80
2022-11-21T16:31:26.217Z,93.40
2022-11-21T16:34:01.159Z,96.40
2022-11-21T16:36:34.905Z,113.60
2022-11-21T16:39:12.377Z,117.10
2022-11-21T16:41:48.027Z,111.50
2022-11-21T16:44:20.684Z,98.20
2022-11-21T16:46:55.414Z,103.90
2022-11-21T16:49:29.154Z,109.50
2022-11-21T16:52:01.533Z,103.30
2022-11-21T16:54:33.597Z,89.90
2022-11-21T16:57:05.616Z,100.60
2022-11-21T16:59:39.761Z,109.00
2022-11-21T17:04:47.004Z,101.40
2022-11-21T17:07:19.554Z,109.10
2022-11-21T17:09:56.612Z,107.00
2022-11-21T17:12:29.216Z,106.10
2022-11-21T17:15:09.051Z,98.20
2022-11-21T17:17:44.366Z,101.40
2022-11-21T17:20:17.117Z,98.30
2022-11-21T17:22:51.091Z,106.50
2022-11-21T17:25:23.818Z,96.40
2022-11-21T17:27:56.053Z,105.20
2022-11-21T17:30:34.062Z,108.30
2022-11-21T17:33:11.236Z,103.70
2022-11-21T17:35:52.598Z,104.10
2022-11-21T17:38:26.906Z,108.30
2022-11-21T17:41:05.344Z,95.00
2022-11-21T17:43:37.894Z,104.50
2022-11-21T17:46:13.154Z,110.80
2022-11-21T17:48:55.560Z,105.50
2022-11-21T17:51:37.979Z,96.70
2022-11-21T17:54:11.415Z,106.60
2022-11-21T17:56:46.603Z,141.30
2022-11-21T17:59:21.541Z,108.60
2022-11-21T18:01:53.596Z,113.50
2022-11-21T18:04:26.583Z,101.20
2022-11-21T18:07:00.678Z,107.40
2022-11-21T18:12:03.927Z,98.90
2022-11-21T18:14:36.996Z,104.40
2022-11-21T18:17:12.408Z,97.80
2022-11-21T18:19:45.226Z,103.90
2022-11-21T18:22:17.488Z,111.50
2022-11-21T18:24:51.162Z,102.50
2022-11-21T18:27:25.757Z,105.90
2022-11-21T18:29:57.565Z,96.40
2022-11-21T18:32:30.973Z,101.70
2022-11-21T18:35:04.252Z,104.80
2022-11-21T18:37:38.272Z,99.00
2022-11-21T18:40:13.251Z,101.70
2022-11-21T18:42:45.284Z,98.30
2022-11-21T18:45:17.514Z,97.10
2022-11-21T18:47:49.968Z,99.30
2022-11-21T18:50:22.486Z,102.00
2022-11-21T18:53:01.145Z,96.40
2022-11-21T18:55:33.025Z,102.50
2022-11-21T18:58:05.204Z,99.20
2022-11-21T19:00:41.368Z,89.40
2022-11-21T19:03:21.001Z,100.90
2022-11-21T19:05:55.819Z,104.50
2022-11-21T19:08:28.886Z,105.40
2022-11-21T19:11:05.744Z,98.70
2022-11-21T19:13:37.946Z,104.30
2022-11-21T19:16:13.829Z,103.00
2022-11-21T19:19:18.583Z,89.90
2022-11-21T19:21:51.826Z,95.40
2022-11-21T19:24:24.294Z,94.00
2022-11-21T19:27:01.647Z,98.90
2022-11-21T19:29:35.344Z,94.00
2022-11-21T19:32:08.418Z,93.60
2022-11-21T19:34:48.292Z,95.70
2022-11-21T19:37:22.962Z,101.40
2022-11-21T19:39:58.085Z,104.00
2022-11-21T19:42:39.914Z,95.40
2022-11-21T19:45:31.233Z,97.80
2022-11-21T19:48:11.331Z,101.40
2022-11-21T19:50:50.758Z,103.30
2022-11-21T19:53:26.099Z,103.70
2022-11-21T19:55:59.277Z,100.40
2022-11-21T19:58:31.497Z,98.50
2022-11-21T20:01:09.851Z,92.00
2022-11-21T20:03:44.895Z,95.60
2022-11-21T20:06:20.022Z,105.90
2022-11-21T20:08:55.541Z,85.80
2022-11-21T20:11:28.768Z,94.10
2022-11-21T20:14:01.102Z,96.40
2022-11-21T20:16:35.132Z,86.00
2022-11-21T20:19:08.829Z,90.60
2022-11-21T20:21:41.058Z,91.60
2022-11-21T20:24:13.286Z,76.20
2022-11-21T20:26:45.993Z,83.00
2022-11-21T20:29:18.285Z,91.50
2022-11-21T20:31:50.413Z,80.50
2022-11-21T20:34:22.678Z,92.50
2022-11-21T20:36:54.711Z,88.70
2022-11-21T20:39:32.178Z,89.80
2022-11-21T20:42:05.594Z,89.80
2022-11-21T20:47:32.074Z,87.80
2022-11-21T20:50:00.571Z,103.60
2022-11-21T20:55:18.781Z,108.80
2022-11-21T20:57:47.598Z,118.30
2022-11-21T21:00:18.117Z,116.50
2022-11-21T21:02:47.872Z,124.00
2022-11-21T21:05:16.543Z,223.30
2022-11-21T21:07:44.869Z,116.20
2022-11-21T21:10:14.507Z,107.70
2022-11-21T21:12:47.347Z,109.10
2022-11-21T21:15:17.325Z,110.30
2022-11-21T21:17:45.606Z,116.30
2022-11-21T21:20:13.859Z,113.80
2022-11-21T21:22:42.442Z,113.50
2022-11-21T21:25:11.140Z,101.00
2022-11-21T21:27:39.407Z,107.50
2022-11-21T21:30:10.465Z,112.70
2022-11-21T21:32:38.972Z,106.80
2022-11-21T21:35:08.448Z,115.40
2022-11-21T21:37:37.020Z,114.40
2022-11-21T21:40:08.085Z,95.20
2022-11-21T21:42:36.317Z,98.60
2022-11-21T21:45:05.732Z,102.80
2022-11-21T21:47:34.057Z,96.40
2022-11-21T21:50:02.257Z,92.50
2022-11-21T21:52:31.081Z,97.90
2022-11-21T21:54:59.310Z,96.40
2022-11-21T21:57:27.572Z,95.40
2022-11-21T21:59:56.288Z,98.20
2022-11-21T22:02:24.480Z,93.60
2022-11-21T22:04:52.763Z,92.70
2022-11-21T22:07:21.225Z,91.70
2022-11-21T22:09:49.554Z,99.00
2022-11-21T22:12:17.836Z,104.30
2022-11-21T22:14:46.284Z,100.60
2022-11-21T22:17:14.610Z,105.50
2022-11-21T22:19:42.808Z,101.60
2022-11-21T22:22:11.528Z,115.60
2022-11-21T22:24:39.990Z,102.50
2022-11-21T22:27:08.379Z,98.10
2022-11-21T22:29:36.814Z,100.40
2022-11-21T22:32:06.829Z,102.90
2022-11-21T22:34:34.999Z,84.80
2022-11-21T22:37:03.492Z,101.20
2022-11-21T22:39:32.477Z,100.80
2022-11-21T22:42:00.662Z,83.10
2022-11-21T22:44:29.229Z,94.10
2022-11-21T22:46:57.602Z,88.40
2022-11-21T22:49:25.902Z,92.50
2022-11-21T22:51:54.458Z,90.50
2022-11-21T22:54:22.725Z,106.60
2022-11-21T22:56:50.904Z,96.80
2022-11-21T22:59:19.521Z,99.00
2022-11-21T23:01:47.732Z,96.10
2022-11-21T23:04:17.831Z,80.90
2022-11-21T23:06:46.447Z,91.00
2022-11-21T23:09:14.759Z,90.10
2022-11-21T23:11:43.042Z,89.20
2022-11-21T23:14:11.661Z,92.30
2022-11-21T23:16:39.916Z,89.40
2022-11-21T23:19:08.211Z,92.50
2022-11-21T23:21:36.741Z,86.90
2022-11-21T23:24:06.146Z,77.40
2022-11-21T23:26:34.420Z,89.80
2022-11-21T23:29:08.373Z,87.60
2022-11-21T23:31:37.380Z,89.30
2022-11-21T23:34:05.929Z,86.80
2022-11-21T23:36:34.462Z,86.00
2022-11-21T23:39:08.738Z,85.60
2022-11-21T23:41:38.235Z,89.10
2022-11-21T23:44:06.568Z,98.60
2022-11-21T23:46:34.923Z,88.30
2022-11-21T23:49:03.384Z,92.80
2022-11-21T23:51:31.674Z,94.00
2022-11-21T23:54:01.447Z,92.50
2022-11-21T23:56:30.349Z,88.90
2022-11-21T23:58:58.852Z,94.30
